createdAt,value
2023-03-20T00:01:12.740Z,11.03
2023-03-20T00:03:39.178Z,10.87
2023-03-20T00:06:06.151Z,11.08
2023-03-20T00:08:33.030Z,11.33
2023-03-20T00:10:59.575Z,10.84
2023-03-20T00:13:28.293Z,11.26
2023-03-20T00:15:55.020Z,11.07
2023-03-20T00:18:24.799Z,11.21
2023-03-20T00:20:51.962Z,11.38
2023-03-20T00:23:18.633Z,10.77
2023-03-20T00:25:46.890Z,11.39
2023-03-20T00:28:36.297Z,11.37
2023-03-20T00:31:02.928Z,11.24
2023-03-20T00:33:31.301Z,11.10
2023-03-20T00:35:59.038Z,10.79
2023-03-20T00:38:25.889Z,11.40
2023-03-20T00:40:52.591Z,11.27
2023-03-20T00:43:19.177Z,11.26
2023-03-20T00:45:46.659Z,11.25
2023-03-20T00:48:16.854Z,10.84
2023-03-20T00:50:43.593Z,11.43
2023-03-20T00:53:11.850Z,11.42
2023-03-20T00:55:40.038Z,11.41
2023-03-20T00:58:06.817Z,10.25
2023-03-20T01:00:42.778Z,11.24
2023-03-20T01:03:18.674Z,11.33
2023-03-20T01:05:46.348Z,11.25
2023-03-20T01:08:21.419Z,10.97
2023-03-20T01:10:53.003Z,11.17
2023-03-20T01:13:24.005Z,11.42
2023-03-20T01:15:52.492Z,11.22
2023-03-20T01:18:21.457Z,11.43
2023-03-20T01:20:49.033Z,11.29
2023-03-20T01:23:16.353Z,10.81
2023-03-20T01:25:43.077Z,11.12
2023-03-20T01:28:23.204Z,11.48
2023-03-20T01:30:50.582Z,11.19
2023-03-20T01:33:23.854Z,11.49
2023-03-20T01:35:51.490Z,11.47
2023-03-20T01:38:26.276Z,11.15
2023-03-20T01:41:01.816Z,10.55
2023-03-20T01:43:29.515Z,11.42
2023-03-20T01:46:04.130Z,11.15
2023-03-20T01:48:52.634Z,11.40
2023-03-20T01:51:22.739Z,11.32
2023-03-20T01:53:58.813Z,11.30
2023-03-20T01:56:27.064Z,11.22
2023-03-20T01:58:59.991Z,10.88
2023-03-20T02:01:27.881Z,10.69
2023-03-20T02:03:55.757Z,10.61
2023-03-20T02:06:23.846Z,11.01
2023-03-20T02:08:52.417Z,10.93
2023-03-20T02:11:22.493Z,10.54
2023-03-20T02:13:53.021Z,10.84
2023-03-20T02:16:20.360Z,10.36
2023-03-20T02:18:49.767Z,10.73
2023-03-20T02:21:55.362Z,10.72
2023-03-20T02:24:49.907Z,10.65
2023-03-20T02:27:20.673Z,10.14
2023-03-20T02:30:09.118Z,10.57
2023-03-20T02:33:00.526Z,10.52
2023-03-20T02:35:57.925Z,10.46
2023-03-20T02:38:43.937Z,10.38
2023-03-20T02:41:19.479Z,10.38
2023-03-20T02:43:59.327Z,10.34
2023-03-20T02:46:50.855Z,9.98
2023-03-20T02:49:31.760Z,10.24
2023-03-20T02:52:08.257Z,10.19
2023-03-20T02:54:43.966Z,10.14
2023-03-20T02:57:27.256Z,9.98
2023-03-20T03:00:00.369Z,9.74
2023-03-20T03:02:45.030Z,9.78
2023-03-20T03:05:37.691Z,9.88
2023-03-20T03:08:06.799Z,10.00
2023-03-20T03:10:39.131Z,9.98
2023-03-20T03:13:14.477Z,9.87
2023-03-20T03:15:45.675Z,9.94
2023-03-20T03:18:17.560Z,9.41
2023-03-20T03:20:46.683Z,9.61
2023-03-20T03:23:45.577Z,9.95
2023-03-20T03:26:37.029Z,9.79
2023-03-20T03:29:12.255Z,9.51
2023-03-20T03:31:39.180Z,9.61
2023-03-20T03:34:06.454Z,9.68
2023-03-20T03:36:51.681Z,9.82
2023-03-20T03:39:27.145Z,9.62
2023-03-20T03:42:27.847Z,9.94
2023-03-20T03:44:57.930Z,9.92
2023-03-20T03:47:32.802Z,9.92
2023-03-20T03:50:06.661Z,9.91
2023-03-20T03:52:35.918Z,9.64
2023-03-20T03:55:11.420Z,9.65
2023-03-20T03:57:50.415Z,9.49
2023-03-20T04:00:24.981Z,9.50
2023-03-20T04:02:54.608Z,9.85
2023-03-20T04:05:22.810Z,9.71
2023-03-20T04:07:55.351Z,9.95
2023-03-20T04:10:21.868Z,9.81
2023-03-20T04:12:48.383Z,9.85
2023-03-20T04:15:16.877Z,9.85
2023-03-20T04:17:44.668Z,9.66
2023-03-20T04:20:14.997Z,9.82
2023-03-20T04:22:41.685Z,10.06
2023-03-20T04:25:10.315Z,9.96
2023-03-20T04:27:36.759Z,8.91
2023-03-20T04:30:03.367Z,9.36
2023-03-20T04:32:29.794Z,9.71
2023-03-20T04:34:56.301Z,9.96
2023-03-20T04:37:22.722Z,9.97
2023-03-20T04:39:49.283Z,9.98
2023-03-20T04:42:15.769Z,9.77
2023-03-20T04:44:42.204Z,9.97
2023-03-20T04:47:08.640Z,9.73
2023-03-20T04:49:35.519Z,9.24
2023-03-20T04:52:02.052Z,9.95
2023-03-20T04:54:28.509Z,9.76
2023-03-20T04:56:55.036Z,9.78
2023-03-20T04:59:21.618Z,9.93
2023-03-20T05:01:48.117Z,9.91
2023-03-20T05:04:14.592Z,9.33
2023-03-20T05:06:41.328Z,9.52
2023-03-20T05:09:07.772Z,9.25
2023-03-20T05:11:34.333Z,9.65
2023-03-20T05:14:00.766Z,9.55
2023-03-20T05:16:27.476Z,9.29
2023-03-20T05:18:53.998Z,9.67
2023-03-20T05:21:20.597Z,9.48
2023-03-20T05:23:47.128Z,9.61
2023-03-20T05:26:13.609Z,9.51
2023-03-20T05:28:40.183Z,9.77
2023-03-20T05:31:07.215Z,9.53
2023-03-20T05:33:35.560Z,9.76
2023-03-20T05:36:03.868Z,9.49
2023-03-20T05:38:33.527Z,9.34
2023-03-20T05:41:01.074Z,9.53
2023-03-20T05:43:30.520Z,9.20
2023-03-20T05:45:57.012Z,9.52
2023-03-20T05:48:24.017Z,9.51
2023-03-20T05:50:50.592Z,9.35
2023-03-20T05:53:17.132Z,9.34
2023-03-20T05:55:44.707Z,9.62
2023-03-20T05:58:12.162Z,9.76
2023-03-20T06:00:39.580Z,9.53
2023-03-20T06:03:06.981Z,9.34
2023-03-20T06:05:35.488Z,9.17
2023-03-20T06:08:02.863Z,9.64
2023-03-20T06:10:30.482Z,9.79
2023-03-20T06:13:00.821Z,9.50
2023-03-20T06:15:28.362Z,9.91
2023-03-20T06:17:56.234Z,9.68
2023-03-20T06:20:22.981Z,9.82
2023-03-20T06:22:49.513Z,9.74
2023-03-20T06:25:16.288Z,9.76
2023-03-20T06:27:42.778Z,9.56
2023-03-20T06:30:10.363Z,9.83
2023-03-20T06:32:36.945Z,9.69
2023-03-20T06:35:05.766Z,9.97
2023-03-20T06:37:32.681Z,9.98
2023-03-20T06:39:59.508Z,10.01
2023-03-20T06:42:26.093Z,10.05
2023-03-20T06:44:52.694Z,9.99
2023-03-20T06:47:19.349Z,10.12
2023-03-20T06:49:46.166Z,9.78
2023-03-20T06:52:17.900Z,10.17
2023-03-20T06:54:44.860Z,9.57
2023-03-20T06:57:14.642Z,10.24
2023-03-20T06:59:41.693Z,10.39
2023-03-20T07:02:10.531Z,9.95
2023-03-20T07:04:37.251Z,9.73
2023-03-20T07:07:04.298Z,10.35
2023-03-20T07:09:31.037Z,10.38
2023-03-20T07:11:57.588Z,9.93
2023-03-20T07:14:24.080Z,10.13
2023-03-20T07:16:50.609Z,10.42
2023-03-20T07:19:17.931Z,10.25
2023-03-20T07:21:44.755Z,10.25
2023-03-20T07:24:12.076Z,10.02
2023-03-20T07:26:38.628Z,10.03
2023-03-20T07:29:05.392Z,10.53
2023-03-20T07:31:35.591Z,10.55
2023-03-20T07:34:02.024Z,10.67
2023-03-20T07:36:28.579Z,10.14
2023-03-20T07:38:55.081Z,10.44
2023-03-20T07:41:27.780Z,10.65
2023-03-20T07:43:54.235Z,10.44
2023-03-20T07:46:20.749Z,10.19
2023-03-20T07:48:47.336Z,10.23
2023-03-20T07:51:13.746Z,9.93
2023-03-20T07:53:40.266Z,10.26
2023-03-20T07:56:07.144Z,10.55
2023-03-20T07:58:33.706Z,10.61
2023-03-20T08:01:00.391Z,10.42
2023-03-20T08:03:27.188Z,10.47
2023-03-20T08:05:54.203Z,10.86
2023-03-20T08:08:21.018Z,10.67
2023-03-20T08:10:48.189Z,10.59
2023-03-20T08:13:15.620Z,10.68
2023-03-20T08:15:42.073Z,10.69
2023-03-20T08:18:08.649Z,11.26
2023-03-20T08:20:35.198Z,11.15
2023-03-20T08:23:01.867Z,11.07
2023-03-20T08:25:32.509Z,11.23
2023-03-20T08:28:01.207Z,11.24
2023-03-20T08:30:27.993Z,11.27
2023-03-20T08:32:54.497Z,11.12
2023-03-20T08:35:32.634Z,11.45
2023-03-20T08:38:03.237Z,11.39
2023-03-20T08:40:29.869Z,11.14
2023-03-20T08:42:56.611Z,10.81
2023-03-20T08:45:25.865Z,11.31
2023-03-20T08:47:53.003Z,11.04
2023-03-20T08:50:19.647Z,11.39
2023-03-20T08:52:47.010Z,11.25
2023-03-20T08:55:14.814Z,11.58
2023-03-20T08:57:41.512Z,11.62
2023-03-20T09:00:10.446Z,11.68
2023-03-20T09:02:37.232Z,11.71
2023-03-20T09:05:04.065Z,11.45
2023-03-20T09:07:30.737Z,11.75
2023-03-20T09:09:57.161Z,11.52
2023-03-20T09:12:23.956Z,11.81
2023-03-20T09:14:50.485Z,11.34
2023-03-20T09:17:16.979Z,11.19
2023-03-20T09:19:44.723Z,11.47
2023-03-20T09:22:17.961Z,11.88
2023-03-20T09:24:45.539Z,11.39
2023-03-20T09:27:13.944Z,11.60
2023-03-20T09:29:41.333Z,11.77
2023-03-20T09:32:11.827Z,11.93
2023-03-20T09:34:38.446Z,11.91
2023-03-20T09:37:05.057Z,11.98
2023-03-20T09:39:31.642Z,11.82
2023-03-20T09:42:03.738Z,12.07
2023-03-20T09:45:01.553Z,12.11
2023-03-20T09:47:42.490Z,12.15
2023-03-20T09:50:34.496Z,12.10
2023-03-20T09:53:16.733Z,12.22
2023-03-20T09:55:44.464Z,12.19
2023-03-20T09:58:18.420Z,12.05
2023-03-20T10:00:46.756Z,12.21
2023-03-20T10:03:25.113Z,11.99
2023-03-20T10:06:06.831Z,12.18
2023-03-20T10:08:36.377Z,12.15
2023-03-20T10:11:24.183Z,12.19
2023-03-20T10:14:02.130Z,12.18
2023-03-20T10:16:56.239Z,12.14
2023-03-20T10:19:26.168Z,12.10
2023-03-20T10:21:58.421Z,12.13
2023-03-20T10:24:39.233Z,11.67
2023-03-20T10:27:28.362Z,11.59
2023-03-20T10:30:21.369Z,11.99
2023-03-20T10:32:58.301Z,12.09
2023-03-20T10:35:55.236Z,12.12
2023-03-20T10:38:40.085Z,12.15
2023-03-20T10:41:16.101Z,12.18
2023-03-20T10:43:46.127Z,12.11
2023-03-20T10:46:27.487Z,12.26
2023-03-20T10:49:12.169Z,12.29
2023-03-20T10:51:51.607Z,11.95
2023-03-20T10:54:26.755Z,11.92
2023-03-20T10:56:56.596Z,12.08
2023-03-20T10:59:48.402Z,12.35
2023-03-20T11:02:20.670Z,12.21
2023-03-20T11:04:47.508Z,12.36
2023-03-20T11:07:35.059Z,12.58
2023-03-20T11:10:04.634Z,12.65
2023-03-20T11:12:50.489Z,12.60
2023-03-20T11:15:26.678Z,12.43
2023-03-20T11:18:04.715Z,12.70
2023-03-20T11:20:39.138Z,12.45
2023-03-20T11:23:08.476Z,12.69
2023-03-20T11:25:38.780Z,12.44
2023-03-20T11:28:23.980Z,12.79
2023-03-20T11:31:04.353Z,12.71
2023-03-20T11:33:33.560Z,12.72
2023-03-20T11:36:00.468Z,12.71
2023-03-20T11:38:31.277Z,12.40
2023-03-20T11:40:57.842Z,12.54
2023-03-20T11:43:27.475Z,12.63
2023-03-20T11:45:59.648Z,12.64
2023-03-20T11:48:47.590Z,12.75
2023-03-20T11:51:20.132Z,12.83
2023-03-20T11:53:49.328Z,12.79
2023-03-20T11:56:26.036Z,12.69
2023-03-20T11:58:57.830Z,12.85
2023-03-20T12:01:26.341Z,12.88
2023-03-20T12:04:02.308Z,12.90
2023-03-20T12:06:42.643Z,12.93
2023-03-20T12:09:16.022Z,13.02
2023-03-20T12:12:03.540Z,12.95
2023-03-20T12:14:52.375Z,12.90
2023-03-20T12:17:27.721Z,12.97
2023-03-20T12:20:01.727Z,12.81
2023-03-20T12:22:36.475Z,12.80
2023-03-20T12:25:18.094Z,13.11
2023-03-20T12:27:53.246Z,12.81
2023-03-20T12:30:42.754Z,13.14
2023-03-20T12:33:27.547Z,13.22
2023-03-20T12:35:54.671Z,13.06
2023-03-20T12:38:28.267Z,12.79
2023-03-20T12:41:08.217Z,12.52
2023-03-20T12:43:46.896Z,13.50
2023-03-20T12:46:30.901Z,13.64
2023-03-20T12:49:13.070Z,13.38
2023-03-20T12:51:45.532Z,13.99
2023-03-20T12:54:23.701Z,14.10
2023-03-20T12:57:02.211Z,14.27
2023-03-20T12:59:31.563Z,14.34
2023-03-20T13:02:33.668Z,14.49
2023-03-20T13:05:07.811Z,14.50
2023-03-20T13:08:03.846Z,14.53
2023-03-20T13:10:37.089Z,14.45
2023-03-20T13:13:56.326Z,14.33
2023-03-20T13:16:35.468Z,14.33
2023-03-20T13:19:01.924Z,14.27
2023-03-20T13:22:14.234Z,14.31
2023-03-20T13:25:10.668Z,14.22
2023-03-20T13:27:45.953Z,14.02
2023-03-20T13:30:34.239Z,14.05
2023-03-20T13:33:42.064Z,13.98
2023-03-20T13:36:29.843Z,13.84
2023-03-20T13:39:10.229Z,13.60
2023-03-20T13:41:36.844Z,13.44
2023-03-20T13:44:05.788Z,13.43
2023-03-20T13:46:47.261Z,13.57
2023-03-20T13:49:20.526Z,13.13
2023-03-20T13:52:03.491Z,13.25
2023-03-20T13:54:36.194Z,13.21
2023-03-20T13:57:35.564Z,12.95
2023-03-20T14:00:36.501Z,13.09
2023-03-20T14:03:06.098Z,13.02
2023-03-20T14:05:38.855Z,12.84
2023-03-20T14:08:27.185Z,12.96
2023-03-20T14:11:05.873Z,12.93
2023-03-20T14:13:34.394Z,12.91
2023-03-20T14:16:07.174Z,12.41
2023-03-20T14:18:33.717Z,12.96
2023-03-20T14:21:02.667Z,12.99
2023-03-20T14:23:38.049Z,12.57
2023-03-20T14:26:10.090Z,12.86
2023-03-20T14:28:54.058Z,12.97
2023-03-20T14:31:42.255Z,13.01
2023-03-20T14:34:17.186Z,12.77
2023-03-20T14:36:59.949Z,12.77
2023-03-20T14:39:48.173Z,13.06
2023-03-20T14:42:33.032Z,13.02
2023-03-20T14:45:18.352Z,12.98
2023-03-20T14:48:03.698Z,12.96
2023-03-20T14:50:39.955Z,12.94
2023-03-20T14:53:21.838Z,12.40
2023-03-20T14:55:51.283Z,12.88
2023-03-20T14:58:41.420Z,12.89
2023-03-20T15:01:17.129Z,12.83
2023-03-20T15:03:50.133Z,12.79
2023-03-20T15:06:22.809Z,12.72
2023-03-20T15:08:53.312Z,12.67
2023-03-20T15:11:21.960Z,12.38
2023-03-20T15:13:49.695Z,12.44
2023-03-20T15:16:16.941Z,12.43
2023-03-20T15:18:51.722Z,12.10
2023-03-20T15:21:33.289Z,12.42
2023-03-20T15:24:01.467Z,12.34
2023-03-20T15:26:29.745Z,12.15
2023-03-20T15:29:07.917Z,12.43
2023-03-20T15:31:38.136Z,12.17
2023-03-20T15:34:17.998Z,12.46
2023-03-20T15:36:44.656Z,11.94
2023-03-20T15:39:18.942Z,12.16
2023-03-20T15:41:50.444Z,12.24
2023-03-20T15:44:23.815Z,12.19
2023-03-20T15:46:59.633Z,11.83
2023-03-20T15:49:27.966Z,11.99
2023-03-20T15:51:59.515Z,11.48
2023-03-20T15:54:26.135Z,11.77
2023-03-20T15:56:56.104Z,11.60
2023-03-20T15:59:26.686Z,11.61
2023-03-20T16:01:57.316Z,11.42
2023-03-20T16:04:24.533Z,11.46
2023-03-20T16:06:57.236Z,11.32
2023-03-20T16:09:25.892Z,11.18
2023-03-20T16:12:01.368Z,11.20
2023-03-20T16:14:31.575Z,11.26
2023-03-20T16:17:00.749Z,11.50
2023-03-20T16:19:29.154Z,11.52
2023-03-20T16:22:04.622Z,11.55
2023-03-20T16:24:38.394Z,11.55
2023-03-20T16:27:09.739Z,11.43
2023-03-20T16:29:41.061Z,11.49
2023-03-20T16:32:20.691Z,11.25
2023-03-20T16:34:51.355Z,11.50
2023-03-20T16:37:26.105Z,11.18
2023-03-20T16:40:26.969Z,11.72
2023-03-20T16:42:57.384Z,11.68
2023-03-20T16:45:31.139Z,11.69
2023-03-20T16:48:34.153Z,11.73
2023-03-20T16:51:17.613Z,11.16
2023-03-20T16:53:53.940Z,11.67
2023-03-20T16:56:29.670Z,11.65
2023-03-20T16:58:57.094Z,11.62
2023-03-20T17:01:27.034Z,11.59
2023-03-20T17:03:56.510Z,11.49
2023-03-20T17:06:22.991Z,11.56
2023-03-20T17:08:56.004Z,11.53
2023-03-20T17:11:24.715Z,11.00
2023-03-20T17:13:51.309Z,11.36
2023-03-20T17:16:21.512Z,11.47
2023-03-20T17:18:57.907Z,11.58
2023-03-20T17:21:24.469Z,11.46
2023-03-20T17:23:51.305Z,11.32
2023-03-20T17:26:17.796Z,10.67
2023-03-20T17:28:46.442Z,11.38
2023-03-20T17:31:17.464Z,11.38
2023-03-20T17:33:45.615Z,11.12
2023-03-20T17:36:24.424Z,11.37
2023-03-20T17:38:51.025Z,11.13
2023-03-20T17:41:20.771Z,10.93
2023-03-20T17:43:47.651Z,11.30
2023-03-20T17:46:16.884Z,11.28
2023-03-20T17:48:43.404Z,10.94
2023-03-20T17:51:10.128Z,11.23
2023-03-20T17:53:36.588Z,10.81
2023-03-20T17:56:03.048Z,11.16
2023-03-20T17:58:29.568Z,10.68
2023-03-20T18:00:56.251Z,10.54
2023-03-20T18:03:22.980Z,10.50
2023-03-20T18:05:51.190Z,10.44
2023-03-20T18:08:21.287Z,10.74
2023-03-20T18:10:49.614Z,11.00
2023-03-20T18:13:18.640Z,10.98
2023-03-20T18:15:47.420Z,10.69
2023-03-20T18:18:14.028Z,10.42
2023-03-20T18:20:43.469Z,10.65
2023-03-20T18:23:10.227Z,10.41
2023-03-20T18:25:36.784Z,10.33
2023-03-20T18:28:06.073Z,10.91
2023-03-20T18:30:38.723Z,10.17
2023-03-20T18:33:06.074Z,10.89
2023-03-20T18:35:33.327Z,10.87
2023-03-20T18:38:00.207Z,10.66
2023-03-20T18:40:35.493Z,10.74
2023-03-20T18:43:02.992Z,10.60
2023-03-20T18:45:30.766Z,10.81
2023-03-20T18:47:58.031Z,10.81
2023-03-20T18:50:28.811Z,10.63
2023-03-20T18:52:56.994Z,10.60
2023-03-20T18:55:26.232Z,10.77
2023-03-20T18:57:53.313Z,10.73
2023-03-20T19:00:35.886Z,10.80
2023-03-20T19:03:02.777Z,10.60
2023-03-20T19:05:30.239Z,10.77
2023-03-20T19:07:56.809Z,10.71
2023-03-20T19:10:29.776Z,10.30
2023-03-20T19:12:57.358Z,10.28
2023-03-20T19:15:28.736Z,10.74
2023-03-20T19:17:55.944Z,10.50
2023-03-20T19:20:41.665Z,10.50
2023-03-20T19:23:11.106Z,10.67
2023-03-20T19:25:38.642Z,10.17
2023-03-20T19:28:05.742Z,10.64
2023-03-20T19:30:39.833Z,10.62
2023-03-20T19:33:07.498Z,10.10
2023-03-20T19:38:22.111Z,10.30
2023-03-20T19:40:52.990Z,10.52
2023-03-20T19:43:21.630Z,10.07
2023-03-20T19:45:56.481Z,10.33
2023-03-20T19:51:23.180Z,10.46
2023-03-20T19:53:50.598Z,10.42
2023-03-20T19:56:19.558Z,10.41
2023-03-20T19:58:46.586Z,10.42
2023-03-20T20:01:19.214Z,9.91
2023-03-20T20:03:46.491Z,10.41
2023-03-20T20:06:13.273Z,10.40
2023-03-20T20:08:48.362Z,10.22
2023-03-20T20:11:15.668Z,9.93
2023-03-20T20:14:03.773Z,10.23
2023-03-20T20:16:29.806Z,10.30
2023-03-20T20:18:56.520Z,10.38
2023-03-20T20:24:09.516Z,9.99
2023-03-20T20:26:40.455Z,10.21
2023-03-20T20:29:14.526Z,10.21
2023-03-20T20:31:41.309Z,10.27
2023-03-20T20:35:08.530Z,10.38
2023-03-20T20:39:40.787Z,10.28
2023-03-20T20:42:07.582Z,9.87
2023-03-20T20:44:34.010Z,9.56
2023-03-20T20:47:00.613Z,10.14
2023-03-20T20:49:27.575Z,10.18
2023-03-20T20:51:54.122Z,9.98
2023-03-20T20:54:20.870Z,10.29
2023-03-20T20:56:47.457Z,10.29
2023-03-20T20:59:13.904Z,9.78
2023-03-20T21:01:40.440Z,10.27
2023-03-20T21:04:07.071Z,10.26
2023-03-20T21:07:05.549Z,9.96
2023-03-20T21:09:19.985Z,10.26
2023-03-20T21:11:46.670Z,10.08
2023-03-20T21:14:14.212Z,9.95
2023-03-20T21:16:40.656Z,9.76
2023-03-20T21:19:07.614Z,9.82
2023-03-20T21:21:35.069Z,10.20
2023-03-20T21:24:02.283Z,10.18
2023-03-20T21:26:28.742Z,9.99
2023-03-20T21:28:55.637Z,9.77
2023-03-20T21:31:30.284Z,10.13
2023-03-20T21:33:57.750Z,9.81
2023-03-20T21:36:24.618Z,9.47
2023-03-20T21:39:07.475Z,10.05
2023-03-20T21:41:35.766Z,9.83
2023-03-20T21:44:03.579Z,9.80
2023-03-20T21:49:58.715Z,9.53
2023-03-20T21:55:48.136Z,9.73
2023-03-20T22:03:11.830Z,9.94
2023-03-20T22:20:18.513Z,9.66
2023-03-20T22:25:53.026Z,9.23
2023-03-20T22:28:34.358Z,9.83
2023-03-20T22:39:40.869Z,9.69
2023-03-20T22:45:00.598Z,9.29
2023-03-20T22:47:22.415Z,9.82
2023-03-20T22:49:48.903Z,9.48
2023-03-20T22:52:29.037Z,9.79
2023-03-20T22:54:58.682Z,9.84
2023-03-20T22:57:38.493Z,9.33
2023-03-20T23:00:10.369Z,9.77
2023-03-20T23:02:37.190Z,9.64
2023-03-20T23:05:03.914Z,9.86
2023-03-20T23:07:30.573Z,9.81
2023-03-20T23:09:58.179Z,9.52
2023-03-20T23:12:24.644Z,9.77
2023-03-20T23:14:51.545Z,9.86
2023-03-20T23:17:18.758Z,9.71
2023-03-20T23:19:50.325Z,9.72
2023-03-20T23:22:18.965Z,9.84
2023-03-20T23:24:45.716Z,9.52
2023-03-20T23:27:12.184Z,9.71
2023-03-20T23:29:38.622Z,9.86
2023-03-20T23:32:05.813Z,9.85
2023-03-20T23:34:32.407Z,9.82
2023-03-20T23:36:58.838Z,9.38
2023-03-20T23:39:25.230Z,9.53
2023-03-20T23:42:12.007Z,9.84
2023-03-20T23:44:44.104Z,9.84
2023-03-20T23:47:20.398Z,9.45
2023-03-20T23:49:47.848Z,9.70
2023-03-20T23:52:14.767Z,9.66
2023-03-20T23:54:41.636Z,9.84
2023-03-20T23:57:08.298Z,9.51
2023-03-20T23:59:34.786Z,9.63
